sensor_id;sensor_type;location;lat;lon;timestamp;P1;durP1;ratioP1;P2;durP2;ratioP2
74080;SDS011;62438;52.228;6.864;2022-12-07T00:00:39;10.82;;;4.45;;
74080;SDS011;62438;52.228;6.864;2022-12-07T00:02:39;9.80;;;4.05;;
74080;SDS011;62438;52.228;6.864;2022-12-07T00:04:39;10.93;;;4.22;;
74080;SDS011;62438;52.228;6.864;2022-12-07T00:06:41;8.80;;;3.90;;
74080;SDS011;62438;52.228;6.864;2022-12-07T00:08:43;12.15;;;3.90;;
74080;SDS011;62438;52.228;6.864;2022-12-07T00:10:44;12.07;;;4.28;;
74080;SDS011;62438;52.228;6.864;2022-12-07T00:12:44;11.68;;;4.40;;
74080;SDS011;62438;52.228;6.864;2022-12-07T00:14:45;11.90;;;3.97;;
74080;SDS011;62438;52.228;6.864;2022-12-07T00:16:48;10.80;;;3.88;;
74080;SDS011;62438;52.228;6.864;2022-12-07T00:18:50;11.38;;;5.07;;
74080;SDS011;62438;52.228;6.864;2022-12-07T00:20:51;14.38;;;5.25;;
74080;SDS011;62438;52.228;6.864;2022-12-07T00:22:51;11.75;;;4.45;;
74080;SDS011;62438;52.228;6.864;2022-12-07T00:24:51;10.90;;;4.90;;
74080;SDS011;62438;52.228;6.864;2022-12-07T00:26:52;13.52;;;5.50;;
74080;SDS011;62438;52.228;6.864;2022-12-07T00:28:56;10.80;;;5.15;;
74080;SDS011;62438;52.228;6.864;2022-12-07T00:31:02;14.60;;;5.75;;
74080;SDS011;62438;52.228;6.864;2022-12-07T00:33:06;14.60;;;5.28;;
74080;SDS011;62438;52.228;6.864;2022-12-07T00:35:07;12.00;;;5.05;;
74080;SDS011;62438;52.228;6.864;2022-12-07T00:37:07;13.93;;;4.60;;
74080;SDS011;62438;52.228;6.864;2022-12-07T00:39:08;10.75;;;4.90;;
74080;SDS011;62438;52.228;6.864;2022-12-07T00:41:13;15.02;;;5.45;;
74080;SDS011;62438;52.228;6.864;2022-12-07T00:43:14;12.95;;;4.32;;
74080;SDS011;62438;52.228;6.864;2022-12-07T00:45:15;13.57;;;5.22;;
74080;SDS011;62438;52.228;6.864;2022-12-07T00:47:18;9.63;;;4.25;;
74080;SDS011;62438;52.228;6.864;2022-12-07T00:49:19;10.02;;;4.53;;
74080;SDS011;62438;52.228;6.864;2022-12-07T00:51:20;8.57;;;4.20;;
74080;SDS011;62438;52.228;6.864;2022-12-07T00:57:22;13.03;;;4.67;;
74080;SDS011;62438;52.228;6.864;2022-12-07T00:59:23;11.30;;;4.70;;
74080;SDS011;62438;52.228;6.864;2022-12-07T01:01:24;10.98;;;3.90;;
74080;SDS011;62438;52.228;6.864;2022-12-07T01:03:25;10.45;;;4.07;;
74080;SDS011;62438;52.228;6.864;2022-12-07T01:05:26;14.32;;;5.00;;
74080;SDS011;62438;52.228;6.864;2022-12-07T01:07:26;11.82;;;3.83;;
74080;SDS011;62438;52.228;6.864;2022-12-07T01:09:27;15.48;;;5.35;;
74080;SDS011;62438;52.228;6.864;2022-12-07T01:11:28;12.57;;;3.75;;
74080;SDS011;62438;52.228;6.864;2022-12-07T01:13:30;10.57;;;3.55;;
74080;SDS011;62438;52.228;6.864;2022-12-07T01:15:31;15.65;;;4.22;;
74080;SDS011;62438;52.228;6.864;2022-12-07T01:17:32;12.52;;;4.25;;
74080;SDS011;62438;52.228;6.864;2022-12-07T01:19:32;9.20;;;3.65;;
74080;SDS011;62438;52.228;6.864;2022-12-07T01:21:33;12.02;;;3.97;;
74080;SDS011;62438;52.228;6.864;2022-12-07T01:23:36;10.32;;;3.95;;
74080;SDS011;62438;52.228;6.864;2022-12-07T01:25:36;10.75;;;4.30;;
74080;SDS011;62438;52.228;6.864;2022-12-07T01:27:37;11.00;;;3.90;;
74080;SDS011;62438;52.228;6.864;2022-12-07T01:29:38;9.35;;;3.63;;
74080;SDS011;62438;52.228;6.864;2022-12-07T01:31:38;11.02;;;3.65;;
74080;SDS011;62438;52.228;6.864;2022-12-07T01:33:39;14.27;;;4.20;;
74080;SDS011;62438;52.228;6.864;2022-12-07T01:35:39;10.50;;;3.15;;
74080;SDS011;62438;52.228;6.864;2022-12-07T01:37:39;8.02;;;3.40;;
74080;SDS011;62438;52.228;6.864;2022-12-07T01:39:40;8.93;;;3.28;;
74080;SDS011;62438;52.228;6.864;2022-12-07T01:41:41;9.63;;;3.00;;
74080;SDS011;62438;52.228;6.864;2022-12-07T01:46:08;14.85;;;3.78;;
74080;SDS011;62438;52.228;6.864;2022-12-07T01:48:09;12.77;;;3.22;;
74080;SDS011;62438;52.228;6.864;2022-12-07T01:50:11;13.90;;;3.45;;
74080;SDS011;62438;52.228;6.864;2022-12-07T01:52:16;12.50;;;3.55;;
74080;SDS011;62438;52.228;6.864;2022-12-07T01:54:23;13.02;;;3.10;;
74080;SDS011;62438;52.228;6.864;2022-12-07T01:56:25;10.27;;;3.40;;
74080;SDS011;62438;52.228;6.864;2022-12-07T01:58:28;11.30;;;3.60;;
74080;SDS011;62438;52.228;6.864;2022-12-07T02:00:29;12.13;;;4.10;;
74080;SDS011;62438;52.228;6.864;2022-12-07T02:02:30;9.50;;;3.33;;
74080;SDS011;62438;52.228;6.864;2022-12-07T02:04:33;10.77;;;3.28;;
74080;SDS011;62438;52.228;6.864;2022-12-07T02:06:35;8.77;;;3.25;;
74080;SDS011;62438;52.228;6.864;2022-12-07T02:08:37;10.95;;;3.75;;
74080;SDS011;62438;52.228;6.864;2022-12-07T02:10:38;10.07;;;3.22;;
74080;SDS011;62438;52.228;6.864;2022-12-07T02:12:38;12.77;;;3.40;;
74080;SDS011;62438;52.228;6.864;2022-12-07T02:14:39;11.10;;;2.92;;
74080;SDS011;62438;52.228;6.864;2022-12-07T02:23:43;7.57;;;2.33;;
74080;SDS011;62438;52.228;6.864;2022-12-07T02:31:17;7.20;;;2.63;;
74080;SDS011;62438;52.228;6.864;2022-12-07T02:33:24;12.15;;;2.80;;
74080;SDS011;62438;52.228;6.864;2022-12-07T02:35:48;8.00;;;2.30;;
74080;SDS011;62438;52.228;6.864;2022-12-07T02:40:21;9.43;;;2.72;;
74080;SDS011;62438;52.228;6.864;2022-12-07T02:42:28;10.07;;;2.40;;
74080;SDS011;62438;52.228;6.864;2022-12-07T02:44:33;9.13;;;2.53;;
74080;SDS011;62438;52.228;6.864;2022-12-07T02:46:38;6.78;;;2.53;;
74080;SDS011;62438;52.228;6.864;2022-12-07T02:48:42;11.95;;;3.10;;
74080;SDS011;62438;52.228;6.864;2022-12-07T02:50:44;11.48;;;2.70;;
74080;SDS011;62438;52.228;6.864;2022-12-07T02:52:52;9.50;;;2.80;;
74080;SDS011;62438;52.228;6.864;2022-12-07T02:54:52;12.80;;;2.78;;
74080;SDS011;62438;52.228;6.864;2022-12-07T02:59:02;8.57;;;2.67;;
74080;SDS011;62438;52.228;6.864;2022-12-07T03:03:25;11.88;;;2.63;;
74080;SDS011;62438;52.228;6.864;2022-12-07T03:10:46;9.27;;;1.95;;
74080;SDS011;62438;52.228;6.864;2022-12-07T03:15:02;9.88;;;2.40;;
74080;SDS011;62438;52.228;6.864;2022-12-07T03:17:12;8.27;;;2.38;;
74080;SDS011;62438;52.228;6.864;2022-12-07T03:19:15;6.72;;;1.90;;
74080;SDS011;62438;52.228;6.864;2022-12-07T03:21:23;9.07;;;2.17;;
74080;SDS011;62438;52.228;6.864;2022-12-07T03:23:27;9.45;;;3.08;;
74080;SDS011;62438;52.228;6.864;2022-12-07T03:25:29;7.32;;;2.05;;
74080;SDS011;62438;52.228;6.864;2022-12-07T03:27:34;9.90;;;2.20;;
74080;SDS011;62438;52.228;6.864;2022-12-07T03:29:46;9.00;;;2.33;;
74080;SDS011;62438;52.228;6.864;2022-12-07T03:31:55;10.57;;;2.20;;
74080;SDS011;62438;52.228;6.864;2022-12-07T03:34:14;8.27;;;1.65;;
74080;SDS011;62438;52.228;6.864;2022-12-07T03:38:38;9.48;;;2.15;;
74080;SDS011;62438;52.228;6.864;2022-12-07T03:42:50;7.00;;;1.70;;
74080;SDS011;62438;52.228;6.864;2022-12-07T03:44:52;8.35;;;1.98;;
74080;SDS011;62438;52.228;6.864;2022-12-07T03:49:08;11.48;;;2.15;;
74080;SDS011;62438;52.228;6.864;2022-12-07T03:51:19;6.95;;;1.58;;
74080;SDS011;62438;52.228;6.864;2022-12-07T03:53:36;7.93;;;1.50;;
74080;SDS011;62438;52.228;6.864;2022-12-07T03:55:48;6.43;;;1.80;;
74080;SDS011;62438;52.228;6.864;2022-12-07T03:57:50;8.98;;;1.77;;
74080;SDS011;62438;52.228;6.864;2022-12-07T03:59:54;7.40;;;1.70;;
74080;SDS011;62438;52.228;6.864;2022-12-07T04:01:59;9.45;;;1.90;;
74080;SDS011;62438;52.228;6.864;2022-12-07T04:04:02;6.28;;;1.73;;
74080;SDS011;62438;52.228;6.864;2022-12-07T04:06:03;8.15;;;2.08;;
74080;SDS011;62438;52.228;6.864;2022-12-07T04:08:04;12.55;;;1.98;;
74080;SDS011;62438;52.228;6.864;2022-12-07T04:10:05;8.93;;;1.95;;
74080;SDS011;62438;52.228;6.864;2022-12-07T04:12:06;10.65;;;2.00;;
74080;SDS011;62438;52.228;6.864;2022-12-07T04:14:07;10.32;;;2.42;;
74080;SDS011;62438;52.228;6.864;2022-12-07T04:16:19;11.25;;;2.28;;
74080;SDS011;62438;52.228;6.864;2022-12-07T04:18:19;12.05;;;2.70;;
74080;SDS011;62438;52.228;6.864;2022-12-07T04:20:20;10.52;;;2.22;;
74080;SDS011;62438;52.228;6.864;2022-12-07T04:22:20;7.38;;;1.45;;
74080;SDS011;62438;52.228;6.864;2022-12-07T04:24:21;8.55;;;2.30;;
74080;SDS011;62438;52.228;6.864;2022-12-07T04:26:22;13.23;;;2.42;;
74080;SDS011;62438;52.228;6.864;2022-12-07T04:28:22;10.27;;;2.45;;
74080;SDS011;62438;52.228;6.864;2022-12-07T04:30:23;15.18;;;2.22;;
74080;SDS011;62438;52.228;6.864;2022-12-07T04:32:23;10.52;;;2.53;;
74080;SDS011;62438;52.228;6.864;2022-12-07T04:34:24;10.05;;;1.75;;
74080;SDS011;62438;52.228;6.864;2022-12-07T04:36:24;9.98;;;1.65;;
74080;SDS011;62438;52.228;6.864;2022-12-07T04:38:25;8.70;;;2.03;;
74080;SDS011;62438;52.228;6.864;2022-12-07T04:40:25;12.48;;;2.40;;
74080;SDS011;62438;52.228;6.864;2022-12-07T04:42:26;10.50;;;2.15;;
74080;SDS011;62438;52.228;6.864;2022-12-07T04:44:28;9.73;;;2.05;;
74080;SDS011;62438;52.228;6.864;2022-12-07T04:46:30;10.85;;;2.17;;
74080;SDS011;62438;52.228;6.864;2022-12-07T04:48:31;8.95;;;1.88;;
74080;SDS011;62438;52.228;6.864;2022-12-07T04:50:32;13.77;;;2.22;;
74080;SDS011;62438;52.228;6.864;2022-12-07T04:52:32;10.52;;;1.73;;
74080;SDS011;62438;52.228;6.864;2022-12-07T04:54:33;8.75;;;1.58;;
74080;SDS011;62438;52.228;6.864;2022-12-07T04:56:33;6.45;;;1.60;;
74080;SDS011;62438;52.228;6.864;2022-12-07T04:58:35;7.60;;;1.95;;
74080;SDS011;62438;52.228;6.864;2022-12-07T05:00:35;8.52;;;1.75;;
74080;SDS011;62438;52.228;6.864;2022-12-07T05:02:36;9.60;;;1.85;;
74080;SDS011;62438;52.228;6.864;2022-12-07T05:04:36;6.50;;;1.63;;
74080;SDS011;62438;52.228;6.864;2022-12-07T05:06:36;7.63;;;1.70;;
74080;SDS011;62438;52.228;6.864;2022-12-07T05:08:37;5.28;;;1.40;;
74080;SDS011;62438;52.228;6.864;2022-12-07T05:10:38;9.40;;;1.80;;
74080;SDS011;62438;52.228;6.864;2022-12-07T05:12:38;9.75;;;2.17;;
74080;SDS011;62438;52.228;6.864;2022-12-07T05:14:39;11.00;;;2.30;;
74080;SDS011;62438;52.228;6.864;2022-12-07T05:16:39;8.57;;;1.52;;
74080;SDS011;62438;52.228;6.864;2022-12-07T05:18:41;6.55;;;1.55;;
74080;SDS011;62438;52.228;6.864;2022-12-07T05:20:41;9.50;;;1.67;;
74080;SDS011;62438;52.228;6.864;2022-12-07T05:22:42;7.35;;;1.75;;
74080;SDS011;62438;52.228;6.864;2022-12-07T05:24:43;10.05;;;1.70;;
74080;SDS011;62438;52.228;6.864;2022-12-07T05:26:43;8.45;;;1.75;;
74080;SDS011;62438;52.228;6.864;2022-12-07T05:28:44;6.43;;;1.70;;
74080;SDS011;62438;52.228;6.864;2022-12-07T05:30:45;8.00;;;1.75;;
74080;SDS011;62438;52.228;6.864;2022-12-07T05:32:45;11.80;;;1.60;;
74080;SDS011;62438;52.228;6.864;2022-12-07T05:34:46;7.18;;;1.23;;
74080;SDS011;62438;52.228;6.864;2022-12-07T05:36:46;9.15;;;1.75;;
74080;SDS011;62438;52.228;6.864;2022-12-07T05:38:47;7.10;;;1.80;;
74080;SDS011;62438;52.228;6.864;2022-12-07T05:40:47;10.45;;;1.50;;
74080;SDS011;62438;52.228;6.864;2022-12-07T05:42:48;6.80;;;1.17;;
74080;SDS011;62438;52.228;6.864;2022-12-07T05:44:48;4.18;;;1.13;;
74080;SDS011;62438;52.228;6.864;2022-12-07T05:46:49;9.30;;;1.20;;
74080;SDS011;62438;52.228;6.864;2022-12-07T05:48:49;6.45;;;1.60;;
74080;SDS011;62438;52.228;6.864;2022-12-07T05:50:50;8.70;;;1.63;;
74080;SDS011;62438;52.228;6.864;2022-12-07T05:52:51;6.95;;;1.73;;
74080;SDS011;62438;52.228;6.864;2022-12-07T05:54:51;7.50;;;1.58;;
74080;SDS011;62438;52.228;6.864;2022-12-07T05:56:52;10.05;;;1.60;;
74080;SDS011;62438;52.228;6.864;2022-12-07T05:58:52;8.73;;;2.13;;
74080;SDS011;62438;52.228;6.864;2022-12-07T06:01:12;7.28;;;1.60;;
74080;SDS011;62438;52.228;6.864;2022-12-07T06:03:12;8.95;;;1.52;;
74080;SDS011;62438;52.228;6.864;2022-12-07T06:05:12;8.52;;;1.63;;
74080;SDS011;62438;52.228;6.864;2022-12-07T06:07:14;15.82;;;2.67;;
74080;SDS011;62438;52.228;6.864;2022-12-07T06:09:17;8.13;;;1.60;;
74080;SDS011;62438;52.228;6.864;2022-12-07T06:11:18;12.98;;;1.95;;
74080;SDS011;62438;52.228;6.864;2022-12-07T06:13:37;11.25;;;1.58;;
74080;SDS011;62438;52.228;6.864;2022-12-07T06:15:38;7.28;;;1.60;;
74080;SDS011;62438;52.228;6.864;2022-12-07T06:17:38;10.07;;;1.58;;
74080;SDS011;62438;52.228;6.864;2022-12-07T06:19:39;6.15;;;1.45;;
74080;SDS011;62438;52.228;6.864;2022-12-07T06:21:40;8.57;;;1.73;;
74080;SDS011;62438;52.228;6.864;2022-12-07T06:23:41;9.48;;;1.73;;
74080;SDS011;62438;52.228;6.864;2022-12-07T06:25:44;8.32;;;1.50;;
74080;SDS011;62438;52.228;6.864;2022-12-07T06:27:45;9.57;;;1.65;;
74080;SDS011;62438;52.228;6.864;2022-12-07T06:29:46;9.07;;;1.88;;
74080;SDS011;62438;52.228;6.864;2022-12-07T06:31:46;6.30;;;1.90;;
74080;SDS011;62438;52.228;6.864;2022-12-07T06:33:47;8.20;;;1.60;;
74080;SDS011;62438;52.228;6.864;2022-12-07T06:35:47;8.18;;;1.75;;
74080;SDS011;62438;52.228;6.864;2022-12-07T06:37:48;9.95;;;2.08;;
74080;SDS011;62438;52.228;6.864;2022-12-07T06:39:48;6.93;;;1.63;;
74080;SDS011;62438;52.228;6.864;2022-12-07T06:41:49;7.60;;;1.90;;
74080;SDS011;62438;52.228;6.864;2022-12-07T06:43:51;8.77;;;1.77;;
74080;SDS011;62438;52.228;6.864;2022-12-07T06:45:52;9.77;;;1.88;;
74080;SDS011;62438;52.228;6.864;2022-12-07T06:47:52;8.80;;;1.85;;
74080;SDS011;62438;52.228;6.864;2022-12-07T06:49:52;11.10;;;1.95;;
74080;SDS011;62438;52.228;6.864;2022-12-07T06:51:53;10.00;;;1.88;;
74080;SDS011;62438;52.228;6.864;2022-12-07T06:53:53;8.80;;;1.95;;
74080;SDS011;62438;52.228;6.864;2022-12-07T06:55:53;11.52;;;2.25;;
74080;SDS011;62438;52.228;6.864;2022-12-07T06:57:54;7.78;;;1.80;;
74080;SDS011;62438;52.228;6.864;2022-12-07T06:59:54;8.38;;;1.63;;
74080;SDS011;62438;52.228;6.864;2022-12-07T07:01:55;8.55;;;2.17;;
74080;SDS011;62438;52.228;6.864;2022-12-07T07:03:55;6.65;;;2.05;;
74080;SDS011;62438;52.228;6.864;2022-12-07T07:05:55;8.02;;;1.85;;
74080;SDS011;62438;52.228;6.864;2022-12-07T07:07:56;11.13;;;1.67;;
74080;SDS011;62438;52.228;6.864;2022-12-07T07:09:56;9.68;;;1.58;;
74080;SDS011;62438;52.228;6.864;2022-12-07T07:11:57;8.85;;;1.85;;
74080;SDS011;62438;52.228;6.864;2022-12-07T07:13:57;7.55;;;1.70;;
74080;SDS011;62438;52.228;6.864;2022-12-07T07:16:02;14.82;;;2.42;;
74080;SDS011;62438;52.228;6.864;2022-12-07T07:18:02;8.30;;;2.10;;
74080;SDS011;62438;52.228;6.864;2022-12-07T07:20:03;13.23;;;2.40;;
74080;SDS011;62438;52.228;6.864;2022-12-07T07:22:04;5.00;;;1.58;;
74080;SDS011;62438;52.228;6.864;2022-12-07T07:24:05;8.05;;;2.05;;
74080;SDS011;62438;52.228;6.864;2022-12-07T07:26:06;6.78;;;1.92;;
74080;SDS011;62438;52.228;6.864;2022-12-07T07:28:06;7.57;;;2.10;;
74080;SDS011;62438;52.228;6.864;2022-12-07T07:30:07;12.88;;;2.25;;
74080;SDS011;62438;52.228;6.864;2022-12-07T07:32:08;7.55;;;2.00;;
74080;SDS011;62438;52.228;6.864;2022-12-07T07:34:08;9.30;;;2.45;;
74080;SDS011;62438;52.228;6.864;2022-12-07T07:36:09;9.57;;;2.55;;
74080;SDS011;62438;52.228;6.864;2022-12-07T07:38:09;9.90;;;2.20;;
74080;SDS011;62438;52.228;6.864;2022-12-07T07:40:10;8.30;;;1.75;;
74080;SDS011;62438;52.228;6.864;2022-12-07T07:42:10;7.40;;;1.60;;
74080;SDS011;62438;52.228;6.864;2022-12-07T07:44:11;9.48;;;2.10;;
74080;SDS011;62438;52.228;6.864;2022-12-07T07:46:11;8.25;;;2.10;;
74080;SDS011;62438;52.228;6.864;2022-12-07T07:48:12;15.90;;;2.15;;
74080;SDS011;62438;52.228;6.864;2022-12-07T07:50:12;8.43;;;2.33;;
74080;SDS011;62438;52.228;6.864;2022-12-07T07:52:13;13.13;;;1.80;;
74080;SDS011;62438;52.228;6.864;2022-12-07T07:54:13;10.13;;;1.73;;
74080;SDS011;62438;52.228;6.864;2022-12-07T07:56:14;8.13;;;1.63;;
74080;SDS011;62438;52.228;6.864;2022-12-07T07:58:14;9.88;;;2.03;;
74080;SDS011;62438;52.228;6.864;2022-12-07T08:00:15;7.20;;;1.92;;
74080;SDS011;62438;52.228;6.864;2022-12-07T08:02:17;14.80;;;2.42;;
74080;SDS011;62438;52.228;6.864;2022-12-07T08:04:19;12.00;;;2.20;;
74080;SDS011;62438;52.228;6.864;2022-12-07T08:06:19;8.95;;;2.17;;
74080;SDS011;62438;52.228;6.864;2022-12-07T08:08:19;11.40;;;2.08;;
74080;SDS011;62438;52.228;6.864;2022-12-07T08:10:20;10.50;;;1.70;;
74080;SDS011;62438;52.228;6.864;2022-12-07T08:12:20;12.05;;;1.65;;
74080;SDS011;62438;52.228;6.864;2022-12-07T08:14:21;8.73;;;2.20;;
74080;SDS011;62438;52.228;6.864;2022-12-07T08:16:21;10.38;;;2.15;;
74080;SDS011;62438;52.228;6.864;2022-12-07T08:18:21;10.80;;;2.35;;
74080;SDS011;62438;52.228;6.864;2022-12-07T08:20:22;12.18;;;1.67;;
74080;SDS011;62438;52.228;6.864;2022-12-07T08:22:22;13.52;;;1.63;;
74080;SDS011;62438;52.228;6.864;2022-12-07T08:24:23;10.77;;;1.92;;
74080;SDS011;62438;52.228;6.864;2022-12-07T08:26:24;7.22;;;1.92;;
74080;SDS011;62438;52.228;6.864;2022-12-07T08:28:25;8.25;;;1.90;;
74080;SDS011;62438;52.228;6.864;2022-12-07T08:30:26;5.97;;;1.77;;
74080;SDS011;62438;52.228;6.864;2022-12-07T08:32:27;10.90;;;2.05;;
74080;SDS011;62438;52.228;6.864;2022-12-07T08:34:27;9.10;;;1.92;;
74080;SDS011;62438;52.228;6.864;2022-12-07T08:36:28;8.35;;;2.30;;
74080;SDS011;62438;52.228;6.864;2022-12-07T08:38:30;6.55;;;1.88;;
74080;SDS011;62438;52.228;6.864;2022-12-07T08:40:31;10.27;;;1.85;;
74080;SDS011;62438;52.228;6.864;2022-12-07T08:42:32;12.35;;;2.08;;
74080;SDS011;62438;52.228;6.864;2022-12-07T08:44:37;13.40;;;2.22;;
74080;SDS011;62438;52.228;6.864;2022-12-07T08:46:38;10.82;;;2.50;;
74080;SDS011;62438;52.228;6.864;2022-12-07T08:50:50;9.83;;;2.33;;
74080;SDS011;62438;52.228;6.864;2022-12-07T08:52:52;14.23;;;3.13;;
74080;SDS011;62438;52.228;6.864;2022-12-07T08:54:55;8.80;;;2.50;;
74080;SDS011;62438;52.228;6.864;2022-12-07T08:56:56;12.23;;;2.78;;
74080;SDS011;62438;52.228;6.864;2022-12-07T08:58:56;9.52;;;2.20;;
74080;SDS011;62438;52.228;6.864;2022-12-07T09:00:57;14.25;;;2.90;;
74080;SDS011;62438;52.228;6.864;2022-12-07T09:02:58;8.38;;;2.72;;
74080;SDS011;62438;52.228;6.864;2022-12-07T09:04:58;10.65;;;2.95;;
74080;SDS011;62438;52.228;6.864;2022-12-07T09:06:59;9.75;;;2.63;;
74080;SDS011;62438;52.228;6.864;2022-12-07T09:08:59;11.00;;;2.83;;
74080;SDS011;62438;52.228;6.864;2022-12-07T09:11:01;10.10;;;2.30;;
74080;SDS011;62438;52.228;6.864;2022-12-07T09:13:02;9.63;;;2.60;;
74080;SDS011;62438;52.228;6.864;2022-12-07T09:15:02;8.95;;;2.50;;
74080;SDS011;62438;52.228;6.864;2022-12-07T09:17:07;9.73;;;2.28;;
74080;SDS011;62438;52.228;6.864;2022-12-07T09:19:08;10.25;;;2.97;;
74080;SDS011;62438;52.228;6.864;2022-12-07T09:21:09;9.90;;;2.28;;
74080;SDS011;62438;52.228;6.864;2022-12-07T09:23:09;14.45;;;2.53;;
74080;SDS011;62438;52.228;6.864;2022-12-07T09:25:10;10.45;;;2.40;;
74080;SDS011;62438;52.228;6.864;2022-12-07T09:27:10;9.50;;;2.42;;
74080;SDS011;62438;52.228;6.864;2022-12-07T09:29:11;10.57;;;2.30;;
74080;SDS011;62438;52.228;6.864;2022-12-07T09:31:11;10.82;;;2.53;;
74080;SDS011;62438;52.228;6.864;2022-12-07T09:33:12;11.77;;;2.33;;
74080;SDS011;62438;52.228;6.864;2022-12-07T09:35:12;11.85;;;2.08;;
74080;SDS011;62438;52.228;6.864;2022-12-07T09:37:13;6.82;;;1.83;;
74080;SDS011;62438;52.228;6.864;2022-12-07T09:39:13;6.85;;;1.67;;
74080;SDS011;62438;52.228;6.864;2022-12-07T09:41:14;12.38;;;1.95;;
74080;SDS011;62438;52.228;6.864;2022-12-07T09:43:19;8.15;;;1.90;;
74080;SDS011;62438;52.228;6.864;2022-12-07T09:45:27;6.90;;;1.40;;
74080;SDS011;62438;52.228;6.864;2022-12-07T09:47:36;10.27;;;1.75;;
74080;SDS011;62438;52.228;6.864;2022-12-07T09:49:36;6.55;;;1.65;;
74080;SDS011;62438;52.228;6.864;2022-12-07T09:51:37;11.52;;;2.33;;
74080;SDS011;62438;52.228;6.864;2022-12-07T09:53:37;8.45;;;1.90;;
74080;SDS011;62438;52.228;6.864;2022-12-07T09:55:38;13.77;;;2.00;;
74080;SDS011;62438;52.228;6.864;2022-12-07T09:57:41;11.57;;;2.58;;
74080;SDS011;62438;52.228;6.864;2022-12-07T09:59:42;15.15;;;3.08;;
74080;SDS011;62438;52.228;6.864;2022-12-07T10:01:42;7.35;;;2.35;;
74080;SDS011;62438;52.228;6.864;2022-12-07T10:03:50;9.80;;;2.47;;
74080;SDS011;62438;52.228;6.864;2022-12-07T10:05:53;8.50;;;1.80;;
74080;SDS011;62438;52.228;6.864;2022-12-07T10:07:53;10.88;;;2.47;;
74080;SDS011;62438;52.228;6.864;2022-12-07T10:09:54;11.05;;;2.33;;
74080;SDS011;62438;52.228;6.864;2022-12-07T10:11:58;10.50;;;1.77;;
74080;SDS011;62438;52.228;6.864;2022-12-07T10:14:10;6.70;;;1.67;;
74080;SDS011;62438;52.228;6.864;2022-12-07T10:16:45;9.13;;;1.70;;
74080;SDS011;62438;52.228;6.864;2022-12-07T10:18:41;5.53;;;1.80;;
74080;SDS011;62438;52.228;6.864;2022-12-07T10:20:42;8.25;;;1.95;;
74080;SDS011;62438;52.228;6.864;2022-12-07T10:25:07;5.20;;;1.80;;
74080;SDS011;62438;52.228;6.864;2022-12-07T10:29:42;8.52;;;1.80;;
74080;SDS011;62438;52.228;6.864;2022-12-07T10:31:58;7.50;;;1.50;;
74080;SDS011;62438;52.228;6.864;2022-12-07T10:34:01;8.88;;;1.83;;
74080;SDS011;62438;52.228;6.864;2022-12-07T10:38:26;5.55;;;1.50;;
74080;SDS011;62438;52.228;6.864;2022-12-07T10:40:34;6.63;;;1.60;;
74080;SDS011;62438;52.228;6.864;2022-12-07T10:42:36;9.75;;;1.45;;
74080;SDS011;62438;52.228;6.864;2022-12-07T10:44:36;7.95;;;1.55;;
74080;SDS011;62438;52.228;6.864;2022-12-07T10:51:20;11.68;;;1.48;;
74080;SDS011;62438;52.228;6.864;2022-12-07T10:58:02;7.15;;;1.60;;
74080;SDS011;62438;52.228;6.864;2022-12-07T11:00:09;6.75;;;1.77;;
74080;SDS011;62438;52.228;6.864;2022-12-07T11:05:19;6.43;;;1.20;;
74080;SDS011;62438;52.228;6.864;2022-12-07T11:07:45;6.03;;;1.25;;
74080;SDS011;62438;52.228;6.864;2022-12-07T11:09:57;10.50;;;2.75;;
74080;SDS011;62438;52.228;6.864;2022-12-07T11:16:21;4.28;;;1.20;;
74080;SDS011;62438;52.228;6.864;2022-12-07T11:18:27;6.28;;;1.20;;
74080;SDS011;62438;52.228;6.864;2022-12-07T11:20:50;5.60;;;1.25;;
74080;SDS011;62438;52.228;6.864;2022-12-07T11:25:46;4.45;;;1.20;;
74080;SDS011;62438;52.228;6.864;2022-12-07T11:32:13;3.70;;;1.38;;
74080;SDS011;62438;52.228;6.864;2022-12-07T11:34:38;7.40;;;1.40;;
74080;SDS011;62438;52.228;6.864;2022-12-07T11:36:46;6.95;;;1.20;;
74080;SDS011;62438;52.228;6.864;2022-12-07T11:38:51;7.20;;;1.33;;
74080;SDS011;62438;52.228;6.864;2022-12-07T11:40:55;8.80;;;2.03;;
74080;SDS011;62438;52.228;6.864;2022-12-07T11:45:59;6.70;;;1.17;;
74080;SDS011;62438;52.228;6.864;2022-12-07T11:48:13;6.35;;;1.10;;
74080;SDS011;62438;52.228;6.864;2022-12-07T11:50:26;5.78;;;0.95;;
74080;SDS011;62438;52.228;6.864;2022-12-07T11:54:43;8.13;;;1.13;;
74080;SDS011;62438;52.228;6.864;2022-12-07T11:56:46;7.35;;;0.93;;
74080;SDS011;62438;52.228;6.864;2022-12-07T12:03:15;6.07;;;0.85;;
74080;SDS011;62438;52.228;6.864;2022-12-07T12:05:30;8.75;;;1.05;;
74080;SDS011;62438;52.228;6.864;2022-12-07T12:07:30;11.85;;;1.48;;
74080;SDS011;62438;52.228;6.864;2022-12-07T12:21:12;11.73;;;1.20;;
74080;SDS011;62438;52.228;6.864;2022-12-07T12:23:22;5.35;;;1.10;;
74080;SDS011;62438;52.228;6.864;2022-12-07T12:25:29;7.90;;;1.52;;
74080;SDS011;62438;52.228;6.864;2022-12-07T12:27:38;5.10;;;1.38;;
74080;SDS011;62438;52.228;6.864;2022-12-07T12:29:39;7.13;;;1.40;;
74080;SDS011;62438;52.228;6.864;2022-12-07T12:31:41;9.82;;;1.45;;
74080;SDS011;62438;52.228;6.864;2022-12-07T12:33:46;4.93;;;0.90;;
74080;SDS011;62438;52.228;6.864;2022-12-07T12:38:29;6.75;;;0.90;;
74080;SDS011;62438;52.228;6.864;2022-12-07T12:45:02;5.25;;;1.20;;
74080;SDS011;62438;52.228;6.864;2022-12-07T12:49:41;4.95;;;1.10;;
74080;SDS011;62438;52.228;6.864;2022-12-07T12:53:47;8.13;;;1.20;;
74080;SDS011;62438;52.228;6.864;2022-12-07T13:00:19;4.43;;;1.00;;
74080;SDS011;62438;52.228;6.864;2022-12-07T13:02:21;5.13;;;1.10;;
74080;SDS011;62438;52.228;6.864;2022-12-07T13:04:27;5.63;;;0.98;;
74080;SDS011;62438;52.228;6.864;2022-12-07T13:06:35;7.75;;;1.35;;
74080;SDS011;62438;52.228;6.864;2022-12-07T13:08:40;5.95;;;1.30;;
74080;SDS011;62438;52.228;6.864;2022-12-07T13:10:42;8.13;;;1.77;;
74080;SDS011;62438;52.228;6.864;2022-12-07T13:12:54;5.35;;;1.10;;
74080;SDS011;62438;52.228;6.864;2022-12-07T13:15:03;8.63;;;1.52;;
74080;SDS011;62438;52.228;6.864;2022-12-07T13:21:41;5.55;;;1.30;;
74080;SDS011;62438;52.228;6.864;2022-12-07T13:28:18;7.95;;;1.63;;
74080;SDS011;62438;52.228;6.864;2022-12-07T13:30:21;4.85;;;1.30;;
74080;SDS011;62438;52.228;6.864;2022-12-07T13:32:25;5.57;;;1.30;;
74080;SDS011;62438;52.228;6.864;2022-12-07T13:34:29;10.07;;;1.45;;
74080;SDS011;62438;52.228;6.864;2022-12-07T13:36:37;6.95;;;0.80;;
74080;SDS011;62438;52.228;6.864;2022-12-07T13:38:39;11.25;;;1.50;;
74080;SDS011;62438;52.228;6.864;2022-12-07T13:40:59;6.38;;;1.40;;
74080;SDS011;62438;52.228;6.864;2022-12-07T13:43:02;4.10;;;1.20;;
74080;SDS011;62438;52.228;6.864;2022-12-07T13:45:20;5.53;;;1.05;;
74080;SDS011;62438;52.228;6.864;2022-12-07T13:47:46;9.25;;;1.77;;
74080;SDS011;62438;52.228;6.864;2022-12-07T13:49:53;6.22;;;1.60;;
74080;SDS011;62438;52.228;6.864;2022-12-07T13:54:10;6.57;;;1.15;;
74080;SDS011;62438;52.228;6.864;2022-12-07T13:56:12;6.25;;;1.10;;
74080;SDS011;62438;52.228;6.864;2022-12-07T13:58:15;5.97;;;1.33;;
74080;SDS011;62438;52.228;6.864;2022-12-07T14:00:18;6.28;;;1.30;;
74080;SDS011;62438;52.228;6.864;2022-12-07T14:02:29;6.78;;;1.33;;
74080;SDS011;62438;52.228;6.864;2022-12-07T14:04:33;8.52;;;1.33;;
74080;SDS011;62438;52.228;6.864;2022-12-07T14:06:35;8.25;;;1.48;;
74080;SDS011;62438;52.228;6.864;2022-12-07T14:08:35;9.60;;;1.20;;
74080;SDS011;62438;52.228;6.864;2022-12-07T14:12:55;7.13;;;1.48;;
74080;SDS011;62438;52.228;6.864;2022-12-07T14:14:57;11.50;;;1.70;;
74080;SDS011;62438;52.228;6.864;2022-12-07T14:17:01;6.65;;;1.45;;
74080;SDS011;62438;52.228;6.864;2022-12-07T14:23:45;6.30;;;1.63;;
74080;SDS011;62438;52.228;6.864;2022-12-07T14:26:18;7.80;;;1.48;;